createdAt,value
2023-02-25T00:04:09.768Z,88.85
2023-02-25T00:06:38.643Z,89.06
2023-02-25T00:09:27.637Z,89.11
2023-02-25T00:12:41.386Z,89.03
2023-02-25T00:15:39.265Z,89.04
2023-02-25T00:18:56.440Z,88.90
2023-02-25T00:21:23.723Z,88.98
2023-02-25T00:23:55.024Z,89.01
2023-02-25T00:26:36.299Z,88.88
2023-02-25T00:29:22.356Z,88.93
2023-02-25T00:32:15.624Z,89.12
2023-02-25T00:35:26.899Z,89.29
2023-02-25T00:38:27.405Z,89.23
2023-02-25T00:44:55.242Z,89.42
2023-02-25T00:47:36.819Z,89.19
2023-02-25T00:50:11.238Z,89.40
2023-02-25T00:52:38.486Z,89.39
2023-02-25T00:55:11.296Z,89.39
2023-02-25T00:57:38.395Z,89.17
2023-02-25T01:00:21.999Z,89.41
2023-02-25T01:03:50.577Z,89.44
2023-02-25T01:06:25.099Z,89.44
2023-02-25T01:08:52.407Z,89.58
2023-02-25T01:11:35.991Z,89.74
2023-02-25T01:14:06.279Z,89.37
2023-02-25T01:16:41.484Z,89.57
2023-02-25T01:19:33.492Z,89.75
2023-02-25T01:22:00.690Z,89.59
2023-02-25T01:24:34.920Z,89.73
2023-02-25T01:27:07.171Z,89.63
2023-02-25T01:29:41.546Z,89.73
2023-02-25T01:32:14.151Z,89.67
2023-02-25T01:34:46.649Z,89.46
2023-02-25T01:37:24.647Z,89.56
2023-02-25T01:39:58.902Z,89.67
2023-02-25T01:42:27.720Z,89.64
2023-02-25T01:45:20.103Z,89.38
2023-02-25T01:48:22.307Z,89.49
2023-02-25T01:50:54.863Z,89.47
2023-02-25T01:53:23.196Z,89.42
2023-02-25T01:55:52.707Z,89.50
2023-02-25T01:58:20.073Z,89.46
2023-02-25T02:00:47.356Z,89.38
2023-02-25T02:03:27.830Z,89.18
2023-02-25T02:05:59.226Z,89.32
2023-02-25T02:08:26.547Z,89.35
2023-02-25T02:10:53.912Z,89.27
2023-02-25T02:13:23.594Z,89.51
2023-02-25T02:16:09.220Z,89.13
2023-02-25T02:18:42.042Z,89.22
2023-02-25T02:21:37.032Z,89.46
2023-02-25T02:24:21.257Z,89.33
2023-02-25T02:27:04.941Z,89.21
2023-02-25T02:29:50.214Z,89.40
2023-02-25T02:32:53.769Z,89.08
2023-02-25T02:35:28.917Z,89.17
2023-02-25T02:38:20.242Z,89.03
2023-02-25T02:40:54.651Z,89.17
2023-02-25T02:43:38.701Z,89.04
2023-02-25T02:46:15.115Z,89.28
2023-02-25T02:48:55.501Z,89.21
2023-02-25T02:51:26.819Z,89.13
2023-02-25T02:54:00.991Z,89.32
2023-02-25T02:56:30.225Z,88.92
2023-02-25T02:58:59.573Z,89.08
2023-02-25T03:01:36.214Z,89.08
2023-02-25T03:04:06.510Z,89.15
2023-02-25T03:06:46.002Z,89.07
2023-02-25T03:09:20.736Z,89.36
2023-02-25T03:11:52.933Z,89.21
2023-02-25T03:14:20.209Z,89.34
2023-02-25T03:16:51.742Z,89.17
2023-02-25T03:19:21.509Z,89.13
2023-02-25T03:21:52.980Z,89.03
2023-02-25T03:24:23.291Z,89.26
2023-02-25T03:26:52.251Z,89.06
2023-02-25T03:29:24.501Z,89.10
2023-02-25T03:32:07.838Z,89.05
2023-02-25T03:34:43.930Z,89.19
2023-02-25T03:37:18.399Z,89.10
2023-02-25T03:39:51.652Z,89.03
2023-02-25T03:42:25.761Z,89.01
2023-02-25T03:44:55.255Z,88.98
2023-02-25T03:47:28.463Z,88.99
2023-02-25T03:50:08.172Z,88.82
2023-02-25T03:52:37.461Z,89.05
2023-02-25T03:55:18.078Z,89.21
2023-02-25T03:57:48.639Z,89.13
2023-02-25T04:00:24.990Z,89.03
2023-02-25T04:03:05.545Z,89.15
2023-02-25T04:05:37.852Z,89.05
2023-02-25T04:08:27.932Z,89.16
2023-02-25T04:10:55.715Z,89.15
2023-02-25T04:13:22.727Z,89.49
2023-02-25T04:15:52.837Z,89.24
2023-02-25T04:18:33.952Z,89.58
2023-02-25T04:21:13.141Z,89.38
2023-02-25T04:23:42.922Z,89.55
2023-02-25T04:26:13.025Z,89.62
2023-02-25T04:28:42.177Z,89.43
2023-02-25T04:31:14.692Z,89.45
2023-02-25T04:34:03.321Z,89.54
2023-02-25T04:36:33.255Z,89.53
2023-02-25T04:39:02.829Z,89.44
2023-02-25T04:41:31.906Z,89.73
2023-02-25T04:44:07.851Z,89.40
2023-02-25T04:46:50.071Z,89.41
2023-02-25T04:49:53.275Z,89.40
2023-02-25T04:52:33.430Z,89.16
2023-02-25T04:55:24.387Z,89.24
2023-02-25T04:58:23.002Z,89.23
2023-02-25T05:01:06.732Z,89.40
2023-02-25T05:03:39.772Z,89.46
2023-02-25T05:06:23.668Z,89.25
2023-02-25T05:08:51.146Z,89.29
2023-02-25T05:11:26.818Z,89.37
2023-02-25T05:14:03.863Z,89.48
2023-02-25T05:16:30.867Z,89.45
2023-02-25T05:19:02.493Z,89.27
2023-02-25T05:21:35.907Z,89.42
2023-02-25T05:24:21.326Z,89.37
2023-02-25T05:26:51.459Z,89.44
2023-02-25T05:29:23.447Z,89.46
2023-02-25T05:32:03.909Z,89.39
2023-02-25T05:34:30.766Z,89.56
2023-02-25T05:37:13.374Z,89.69
2023-02-25T05:39:40.161Z,89.71
2023-02-25T05:42:07.079Z,89.65
2023-02-25T05:45:17.205Z,89.60
2023-02-25T05:47:45.079Z,89.49
2023-02-25T05:53:48.869Z,89.58
2023-02-25T05:56:21.206Z,89.46
2023-02-25T05:58:48.726Z,89.49
2023-02-25T06:01:18.771Z,89.56
2023-02-25T06:03:49.156Z,89.40
2023-02-25T06:06:20.139Z,89.66
2023-02-25T06:08:46.941Z,89.78
2023-02-25T06:11:18.647Z,89.70
2023-02-25T06:13:45.384Z,89.65
2023-02-25T06:16:12.291Z,89.68
2023-02-25T06:18:39.868Z,89.61
2023-02-25T06:21:09.186Z,89.71
2023-02-25T06:23:37.736Z,89.44
2023-02-25T06:26:06.238Z,89.74
2023-02-25T06:28:33.279Z,89.77
2023-02-25T06:31:03.111Z,89.76
2023-02-25T06:33:31.702Z,89.84
2023-02-25T06:35:59.113Z,89.89
2023-02-25T06:38:26.169Z,89.70
2023-02-25T06:40:55.333Z,89.95
2023-02-25T06:43:24.626Z,89.72
2023-02-25T06:45:55.935Z,89.75
2023-02-25T06:48:43.414Z,89.83
2023-02-25T06:55:21.719Z,89.61
2023-02-25T06:57:57.571Z,89.98
2023-02-25T07:00:24.908Z,89.87
2023-02-25T07:02:54.910Z,89.90
2023-02-25T07:06:24.465Z,89.88
2023-02-25T07:15:17.795Z,89.88
2023-02-25T07:17:46.071Z,89.88
2023-02-25T07:20:18.281Z,89.93
2023-02-25T07:22:45.025Z,89.85
2023-02-25T07:25:11.894Z,90.19
2023-02-25T07:31:12.018Z,90.26
2023-02-25T07:33:48.707Z,89.91
2023-02-25T07:36:55.523Z,90.08
2023-02-25T07:44:20.530Z,89.94
2023-02-25T07:54:36.376Z,90.00
2023-02-25T07:57:03.605Z,89.84
2023-02-25T07:59:39.065Z,89.98
2023-02-25T08:02:14.571Z,89.62
2023-02-25T08:07:36.815Z,89.74
2023-02-25T08:10:04.027Z,89.62
2023-02-25T08:12:30.896Z,89.54
2023-02-25T08:15:00.325Z,89.36
2023-02-25T08:17:31.326Z,89.31
2023-02-25T08:20:01.134Z,89.33
2023-02-25T08:22:29.428Z,89.07
2023-02-25T08:25:08.027Z,89.30
2023-02-25T08:27:35.746Z,89.25
2023-02-25T08:30:03.808Z,89.00
2023-02-25T08:32:31.362Z,88.83
2023-02-25T08:35:00.758Z,88.87
2023-02-25T08:37:30.838Z,88.63
2023-02-25T08:39:57.605Z,88.57
2023-02-25T08:42:24.446Z,88.58
2023-02-25T08:44:51.174Z,88.87
2023-02-25T08:47:17.993Z,88.58
2023-02-25T08:49:44.715Z,88.64
2023-02-25T08:52:12.158Z,88.43
2023-02-25T08:54:40.060Z,88.37
2023-02-25T08:57:07.523Z,88.18
2023-02-25T08:59:37.321Z,88.27
2023-02-25T09:02:10.085Z,88.02
2023-02-25T09:04:40.113Z,87.98
2023-02-25T09:07:07.096Z,87.71
2023-02-25T09:09:35.399Z,87.86
2023-02-25T09:12:06.330Z,87.70
2023-02-25T09:14:35.245Z,87.80
2023-02-25T09:17:08.111Z,87.69
2023-02-25T09:19:42.098Z,87.29
2023-02-25T09:22:14.055Z,87.34
2023-02-25T09:24:40.857Z,87.09
2023-02-25T09:27:10.706Z,86.97
2023-02-25T09:29:39.361Z,86.82
2023-02-25T09:32:07.392Z,86.62
2023-02-25T09:34:34.504Z,86.44
2023-02-25T09:37:04.305Z,86.67
2023-02-25T09:39:31.450Z,86.63
2023-02-25T09:42:05.639Z,86.39
2023-02-25T09:44:48.071Z,86.21
2023-02-25T09:47:21.993Z,85.92
2023-02-25T09:50:02.824Z,85.93
2023-02-25T09:52:32.077Z,86.08
2023-02-25T09:55:11.381Z,85.81
2023-02-25T09:57:41.679Z,85.70
2023-02-25T10:00:18.844Z,85.80
2023-02-25T10:02:58.921Z,85.63
2023-02-25T10:05:36.642Z,85.50
2023-02-25T10:08:11.648Z,85.28
2023-02-25T10:11:09.469Z,85.22
2023-02-25T10:13:45.407Z,85.19
2023-02-25T10:16:15.428Z,85.31
2023-02-25T10:19:08.962Z,84.81
2023-02-25T10:22:00.998Z,84.68
2023-02-25T10:24:35.298Z,85.01
2023-02-25T10:27:14.009Z,84.69
2023-02-25T10:29:46.564Z,84.44
2023-02-25T10:32:22.209Z,84.55
2023-02-25T10:34:54.187Z,84.21
2023-02-25T10:37:31.456Z,84.45
2023-02-25T10:40:01.919Z,84.53
2023-02-25T10:42:29.880Z,84.60
2023-02-25T10:45:01.929Z,84.96
2023-02-25T10:47:36.096Z,85.41
2023-02-25T10:50:39.209Z,85.49
2023-02-25T10:53:16.146Z,85.81
2023-02-25T10:55:54.890Z,85.81
2023-02-25T10:58:40.833Z,85.81
2023-02-25T11:01:15.160Z,85.75
2023-02-25T11:03:46.372Z,85.47
2023-02-25T11:06:24.280Z,85.39
2023-02-25T11:08:52.982Z,84.79
2023-02-25T11:11:29.686Z,84.36
2023-02-25T11:14:14.809Z,83.83
2023-02-25T11:16:45.723Z,83.33
2023-02-25T11:19:29.928Z,82.97
2023-02-25T11:21:58.011Z,82.32
2023-02-25T11:24:31.474Z,81.93
2023-02-25T11:26:58.515Z,81.89
2023-02-25T11:29:32.343Z,81.20
2023-02-25T11:32:57.716Z,80.77
2023-02-25T11:35:30.795Z,80.38
2023-02-25T11:37:58.719Z,80.33
2023-02-25T11:40:31.565Z,79.91
2023-02-25T11:43:18.150Z,80.33
2023-02-25T11:45:55.198Z,80.35
2023-02-25T11:48:29.604Z,80.42
2023-02-25T11:51:01.579Z,80.49
2023-02-25T11:53:36.502Z,80.29
2023-02-25T11:56:09.544Z,79.94
2023-02-25T11:58:57.753Z,79.99
2023-02-25T12:01:55.415Z,80.42
2023-02-25T12:04:57.068Z,80.57
2023-02-25T12:07:33.629Z,80.72
2023-02-25T12:10:22.104Z,80.39
2023-02-25T12:13:14.924Z,80.52
2023-02-25T12:16:03.728Z,80.60
2023-02-25T12:19:05.347Z,80.69
2023-02-25T12:21:46.090Z,80.71
2023-02-25T12:24:34.858Z,81.19
2023-02-25T12:27:10.090Z,81.30
2023-02-25T12:29:42.764Z,81.49
2023-02-25T12:32:36.404Z,81.76
2023-02-25T12:35:18.861Z,81.42
2023-02-25T12:38:19.944Z,81.48
2023-02-25T12:41:08.441Z,81.45
2023-02-25T12:43:53.905Z,81.18
2023-02-25T12:46:28.048Z,81.15
2023-02-25T12:49:22.000Z,80.65
2023-02-25T12:52:03.907Z,80.57
2023-02-25T12:54:43.876Z,80.74
2023-02-25T12:57:18.592Z,80.81
2023-02-25T13:00:10.315Z,80.61
2023-02-25T13:02:46.923Z,80.72
2023-02-25T13:05:47.512Z,80.80
2023-02-25T13:08:40.783Z,81.04
2023-02-25T13:11:20.854Z,81.08
2023-02-25T13:14:25.359Z,81.18
2023-02-25T13:17:21.104Z,80.91
2023-02-25T13:20:03.973Z,81.16
2023-02-25T13:23:08.095Z,80.96
2023-02-25T13:25:51.722Z,80.66
2023-02-25T13:28:41.449Z,80.52
2023-02-25T13:31:33.421Z,80.10
2023-02-25T13:34:16.327Z,79.92
2023-02-25T13:37:02.214Z,79.66
2023-02-25T13:39:58.259Z,79.37
2023-02-25T13:42:54.538Z,79.28
2023-02-25T13:45:30.073Z,79.63
2023-02-25T13:47:59.905Z,79.74
2023-02-25T13:50:37.861Z,80.45
2023-02-25T13:53:13.418Z,80.71
2023-02-25T13:55:40.291Z,80.87
2023-02-25T13:58:32.080Z,81.16
2023-02-25T14:01:35.739Z,81.11
2023-02-25T14:04:20.899Z,81.48
2023-02-25T14:07:11.578Z,81.37
2023-02-25T14:09:41.470Z,81.53
2023-02-25T14:12:17.658Z,81.45
2023-02-25T14:14:56.561Z,81.55
2023-02-25T14:18:02.631Z,81.38
2023-02-25T14:20:57.362Z,81.58
2023-02-25T14:23:47.827Z,81.84
2023-02-25T14:26:47.579Z,82.03
2023-02-25T14:29:18.844Z,82.15
2023-02-25T14:32:15.308Z,82.10
2023-02-25T14:34:51.059Z,82.00
2023-02-25T14:37:31.858Z,82.02
2023-02-25T14:40:30.280Z,82.11
2023-02-25T14:43:28.402Z,82.36
2023-02-25T14:45:58.842Z,82.40
2023-02-25T14:48:39.117Z,82.31
2023-02-25T14:51:44.586Z,82.12
2023-02-25T14:54:30.319Z,82.16
2023-02-25T14:57:15.506Z,82.09
2023-02-25T15:00:02.562Z,82.16
2023-02-25T15:06:59.618Z,82.32
2023-02-25T15:09:59.351Z,81.98
2023-02-25T15:13:14.817Z,81.83
2023-02-25T15:16:39.693Z,81.32
2023-02-25T15:18:12.701Z,59.73
2023-02-25T15:19:43.391Z,80.80
2023-02-25T15:20:41.077Z,61.58
2023-02-25T15:22:48.416Z,80.21
2023-02-25T15:23:19.710Z,63.43
2023-02-25T15:25:46.621Z,64.46
2023-02-25T15:28:31.629Z,67.34
2023-02-25T15:28:57.848Z,79.83
2023-02-25T15:32:37.476Z,79.52
2023-02-25T15:35:57.720Z,79.52
2023-02-25T15:38:54.497Z,79.52
2023-02-25T15:41:27.384Z,79.56
2023-02-25T15:43:57.869Z,79.67
2023-02-25T15:46:33.812Z,79.37
2023-02-25T15:49:22.608Z,79.56
2023-02-25T15:52:03.218Z,79.33
2023-02-25T15:54:31.220Z,79.42
2023-02-25T15:57:24.827Z,79.39
2023-02-25T15:59:55.722Z,79.00
2023-02-25T16:02:34.921Z,79.07
2023-02-25T16:05:11.980Z,79.09
2023-02-25T16:07:49.875Z,79.16
2023-02-25T16:10:40.091Z,79.11
2023-02-25T16:13:14.474Z,78.94
2023-02-25T16:15:45.334Z,78.96
2023-02-25T16:18:32.761Z,79.13
2023-02-25T16:21:06.314Z,79.23
2023-02-25T16:23:34.358Z,79.44
2023-02-25T16:26:19.572Z,79.85
2023-02-25T16:29:35.663Z,80.07
2023-02-25T16:32:26.012Z,80.25
2023-02-25T16:35:16.057Z,80.84
2023-02-25T16:38:08.545Z,80.81
2023-02-25T16:40:37.914Z,81.20
2023-02-25T16:43:07.855Z,81.38
2023-02-25T16:45:42.205Z,81.43
2023-02-25T16:48:17.960Z,81.84
2023-02-25T16:50:51.404Z,81.86
2023-02-25T16:53:22.710Z,82.11
2023-02-25T16:55:50.583Z,82.18
2023-02-25T16:58:23.459Z,82.42
2023-02-25T17:00:59.266Z,82.50
2023-02-25T17:07:30.863Z,82.74
2023-02-25T17:10:31.632Z,82.67
2023-02-25T17:13:00.478Z,82.89
2023-02-25T17:15:35.179Z,82.82
2023-02-25T17:18:12.868Z,83.03
2023-02-25T17:20:40.074Z,83.06
2023-02-25T17:23:12.724Z,83.08
2023-02-25T17:25:42.780Z,83.40
2023-02-25T17:28:34.240Z,83.18
2023-02-25T17:31:23.120Z,83.58
2023-02-25T17:34:01.128Z,83.84
2023-02-25T17:36:31.552Z,83.99
2023-02-25T17:39:03.324Z,84.39
2023-02-25T17:41:34.187Z,84.37
2023-02-25T17:44:01.261Z,84.70
2023-02-25T17:46:38.337Z,84.50
2023-02-25T17:49:24.164Z,84.62
2023-02-25T17:52:19.077Z,84.48
2023-02-25T17:54:50.603Z,84.49
2023-02-25T17:57:24.651Z,84.82
2023-02-25T17:59:53.357Z,84.89
2023-02-25T18:02:49.914Z,84.62
2023-02-25T18:05:23.543Z,84.65
2023-02-25T18:08:09.563Z,85.09
2023-02-25T18:10:36.400Z,84.88
2023-02-25T18:13:04.516Z,85.01
2023-02-25T18:15:35.916Z,85.11
2023-02-25T18:18:05.942Z,85.19
2023-02-25T18:20:33.764Z,85.32
2023-02-25T18:23:02.116Z,85.26
2023-02-25T18:25:30.683Z,85.12
2023-02-25T18:27:57.690Z,85.29
2023-02-25T18:30:27.061Z,85.39
2023-02-25T18:33:06.347Z,85.32
2023-02-25T18:38:43.962Z,85.53
2023-02-25T18:41:12.147Z,85.62
2023-02-25T18:43:42.066Z,85.74
2023-02-25T18:46:09.848Z,85.67
2023-02-25T18:48:36.769Z,85.88
2023-02-25T18:51:05.859Z,85.73
2023-02-25T18:53:33.587Z,85.82
2023-02-25T18:56:00.692Z,85.83
2023-02-25T18:58:27.600Z,85.89
2023-02-25T19:00:56.526Z,86.03
2023-02-25T19:03:32.835Z,86.08
2023-02-25T19:06:00.054Z,85.91
2023-02-25T19:08:27.155Z,85.78
2023-02-25T19:10:54.793Z,85.77
2023-02-25T19:13:31.622Z,85.86
2023-02-25T19:15:58.884Z,86.17
2023-02-25T19:18:25.812Z,85.83
2023-02-25T19:20:56.286Z,85.85
2023-02-25T19:23:23.810Z,86.00
2023-02-25T19:26:00.571Z,86.07
2023-02-25T19:28:28.880Z,85.89
2023-02-25T19:30:55.774Z,85.90
2023-02-25T19:33:22.619Z,85.97
2023-02-25T19:35:49.782Z,86.04
2023-02-25T19:38:20.440Z,85.98
2023-02-25T19:40:47.898Z,85.71
2023-02-25T19:43:21.499Z,85.67
2023-02-25T19:45:54.603Z,85.59
2023-02-25T19:48:23.089Z,85.70
2023-02-25T19:50:50.032Z,85.60
2023-02-25T19:53:17.095Z,85.70
2023-02-25T19:55:44.310Z,85.54
2023-02-25T19:58:19.068Z,85.61
2023-02-25T20:00:48.173Z,85.69
2023-02-25T20:03:15.408Z,85.50
2023-02-25T20:05:44.841Z,85.55
2023-02-25T20:08:11.772Z,85.32
2023-02-25T20:10:41.721Z,85.33
2023-02-25T20:13:08.704Z,85.48
2023-02-25T20:15:35.555Z,85.54
2023-02-25T20:18:11.362Z,85.67
2023-02-25T20:20:42.754Z,85.64
2023-02-25T20:23:15.062Z,85.69
2023-02-25T20:25:42.670Z,85.62
2023-02-25T20:28:12.674Z,85.63
2023-02-25T20:30:39.970Z,85.54
2023-02-25T20:33:07.124Z,85.52
2023-02-25T20:35:34.324Z,85.62
2023-02-25T20:38:24.592Z,85.59
2023-02-25T20:41:00.987Z,85.93
2023-02-25T20:43:33.442Z,85.82
2023-02-25T20:46:00.707Z,85.85
2023-02-25T20:48:32.325Z,85.77
2023-02-25T20:51:05.254Z,85.84
2023-02-25T20:53:36.428Z,85.94
2023-02-25T20:56:03.254Z,86.00
2023-02-25T20:58:33.360Z,85.97
2023-02-25T21:01:11.977Z,85.86
2023-02-25T21:03:41.573Z,86.15
2023-02-25T21:06:10.361Z,85.91
2023-02-25T21:08:37.825Z,85.94
2023-02-25T21:11:09.885Z,86.24
2023-02-25T21:13:51.914Z,86.37
2023-02-25T21:16:24.593Z,86.45
2023-02-25T21:19:01.232Z,86.31
2023-02-25T21:21:37.458Z,86.42
2023-02-25T21:24:08.877Z,86.47
2023-02-25T21:26:39.456Z,86.25
2023-02-25T21:29:15.300Z,86.21
2023-02-25T21:31:52.302Z,86.55
2023-02-25T21:34:19.537Z,86.57
2023-02-25T21:36:57.761Z,86.77
2023-02-25T21:39:32.135Z,86.45
2023-02-25T21:42:01.949Z,86.71
2023-02-25T21:44:29.053Z,86.71
2023-02-25T21:46:58.243Z,86.64
2023-02-25T21:49:25.538Z,86.88
2023-02-25T21:51:52.347Z,86.72
2023-02-25T21:54:19.129Z,86.71
2023-02-25T21:56:45.863Z,86.98
2023-02-25T21:59:12.686Z,86.92
2023-02-25T22:01:42.653Z,87.00
2023-02-25T22:04:10.069Z,87.01
2023-02-25T22:06:37.655Z,87.08
2023-02-25T22:09:04.802Z,87.06
2023-02-25T22:11:33.879Z,87.09
2023-02-25T22:14:05.811Z,87.13
2023-02-25T22:16:33.247Z,87.13
2023-02-25T22:19:03.126Z,87.29
2023-02-25T22:21:32.515Z,87.20
2023-02-25T22:24:01.361Z,87.06
2023-02-25T22:26:31.739Z,87.22
2023-02-25T22:29:01.982Z,87.23
2023-02-25T22:31:37.302Z,87.38
2023-02-25T22:34:05.525Z,87.27
2023-02-25T22:36:32.770Z,87.36
2023-02-25T22:38:59.742Z,87.38
2023-02-25T22:41:28.931Z,87.39
2023-02-25T22:43:57.582Z,87.53
2023-02-25T22:46:39.018Z,87.30
2023-02-25T22:49:07.314Z,87.58
2023-02-25T22:51:42.101Z,87.49
2023-02-25T22:54:10.612Z,87.31
2023-02-25T22:56:37.595Z,87.38
2023-02-25T22:59:04.398Z,87.35
2023-02-25T23:01:31.259Z,87.58
2023-02-25T23:03:59.402Z,87.46
2023-02-25T23:06:42.178Z,87.26
2023-02-25T23:09:17.619Z,87.28
2023-02-25T23:11:45.378Z,87.20
2023-02-25T23:14:19.666Z,87.49
2023-02-25T23:16:46.912Z,87.52
2023-02-25T23:19:17.507Z,87.36
2023-02-25T23:21:45.014Z,87.18
2023-02-25T23:24:16.503Z,87.47
2023-02-25T23:26:43.871Z,87.33
2023-02-25T23:29:11.953Z,87.25
2023-02-25T23:31:49.412Z,87.25
2023-02-25T23:34:30.449Z,86.99
2023-02-25T23:36:57.453Z,86.86
2023-02-25T23:39:24.740Z,87.07
2023-02-25T23:41:55.679Z,86.92
2023-02-25T23:44:22.644Z,86.93
2023-02-25T23:46:49.391Z,87.07
2023-02-25T23:49:17.373Z,87.00
2023-02-25T23:51:45.751Z,86.76
2023-02-25T23:54:16.720Z,86.62
2023-02-25T23:56:43.754Z,86.56
2023-02-25T23:59:13.960Z,86.72
